sensor_id;sensor_type;location;lat;lon;timestamp;pressure;altitude;pressure_sealevel;temperature;humidity
18167;BME280;9208;42.688;23.404;2022-12-26T00:00:56;96430.25;;;4.67;100.00
18167;BME280;9208;42.688;23.404;2022-12-26T00:03:23;96420.84;;;4.52;100.00
18167;BME280;9208;42.688;23.404;2022-12-26T00:05:49;96426.44;;;4.41;100.00
18167;BME280;9208;42.688;23.404;2022-12-26T00:08:14;96420.81;;;4.29;100.00
18167;BME280;9208;42.688;23.404;2022-12-26T00:10:39;96422.06;;;4.24;100.00
18167;BME280;9208;42.688;23.404;2022-12-26T00:13:05;96430.03;;;4.12;100.00
18167;BME280;9208;42.688;23.404;2022-12-26T00:15:30;96431.38;;;4.00;100.00
18167;BME280;9208;42.688;23.404;2022-12-26T00:17:56;96433.06;;;3.91;100.00
18167;BME280;9208;42.688;23.404;2022-12-26T00:20:21;96433.47;;;3.89;100.00
18167;BME280;9208;42.688;23.404;2022-12-26T00:22:47;96439.06;;;3.79;100.00
18167;BME280;9208;42.688;23.404;2022-12-26T00:25:13;96439.13;;;3.75;100.00
18167;BME280;9208;42.688;23.404;2022-12-26T00:27:38;96449.91;;;3.79;100.00
18167;BME280;9208;42.688;23.404;2022-12-26T00:30:04;96453.47;;;3.72;100.00
18167;BME280;9208;42.688;23.404;2022-12-26T00:32:30;96454.19;;;3.76;100.00
18167;BME280;9208;42.688;23.404;2022-12-26T00:34:55;96443.34;;;3.76;100.00
18167;BME280;9208;42.688;23.404;2022-12-26T00:37:24;96430.75;;;3.89;100.00
18167;BME280;9208;42.688;23.404;2022-12-26T00:39:49;96430.59;;;4.00;100.00
18167;BME280;9208;42.688;23.404;2022-12-26T00:42:14;96435.63;;;4.01;100.00
18167;BME280;9208;42.688;23.404;2022-12-26T00:44:40;96441.28;;;3.87;100.00
18167;BME280;9208;42.688;23.404;2022-12-26T00:47:05;96448.09;;;3.95;100.00
18167;BME280;9208;42.688;23.404;2022-12-26T00:49:31;96441.63;;;3.89;100.00
18167;BME280;9208;42.688;23.404;2022-12-26T00:51:56;96458.25;;;3.91;100.00
18167;BME280;9208;42.688;23.404;2022-12-26T00:54:21;96452.59;;;3.82;100.00
18167;BME280;9208;42.688;23.404;2022-12-26T00:56:47;96446.22;;;3.92;100.00
18167;BME280;9208;42.688;23.404;2022-12-26T00:59:12;96446.31;;;3.85;100.00
18167;BME280;9208;42.688;23.404;2022-12-26T01:01:38;96445.44;;;3.92;100.00
18167;BME280;9208;42.688;23.404;2022-12-26T01:04:03;96450.81;;;3.95;100.00
18167;BME280;9208;42.688;23.404;2022-12-26T01:06:29;96455.44;;;3.98;100.00
18167;BME280;9208;42.688;23.404;2022-12-26T01:08:54;96459.53;;;3.83;100.00
18167;BME280;9208;42.688;23.404;2022-12-26T01:11:19;96463.56;;;3.72;100.00
18167;BME280;9208;42.688;23.404;2022-12-26T01:14:04;96462.94;;;3.61;100.00
18167;BME280;9208;42.688;23.404;2022-12-26T01:16:30;96466.28;;;3.72;100.00
18167;BME280;9208;42.688;23.404;2022-12-26T01:18:59;96470.06;;;3.78;100.00
18167;BME280;9208;42.688;23.404;2022-12-26T01:21:24;96476.41;;;3.68;100.00
18167;BME280;9208;42.688;23.404;2022-12-26T01:23:49;96481.97;;;3.57;100.00
18167;BME280;9208;42.688;23.404;2022-12-26T01:26:15;96490.56;;;3.52;100.00
18167;BME280;9208;42.688;23.404;2022-12-26T01:28:40;96487.06;;;3.52;100.00
18167;BME280;9208;42.688;23.404;2022-12-26T01:31:05;96491.81;;;3.44;100.00
18167;BME280;9208;42.688;23.404;2022-12-26T01:33:32;96489.09;;;3.44;100.00
18167;BME280;9208;42.688;23.404;2022-12-26T01:35:57;96480.13;;;3.51;100.00
18167;BME280;9208;42.688;23.404;2022-12-26T01:38:23;96483.97;;;3.53;100.00
18167;BME280;9208;42.688;23.404;2022-12-26T01:40:49;96485.94;;;3.49;100.00
18167;BME280;9208;42.688;23.404;2022-12-26T01:44:00;96481.03;;;3.41;100.00
18167;BME280;9208;42.688;23.404;2022-12-26T01:46:31;96484.13;;;3.39;100.00
18167;BME280;9208;42.688;23.404;2022-12-26T01:49:05;96474.19;;;3.29;100.00
18167;BME280;9208;42.688;23.404;2022-12-26T01:51:35;96465.06;;;3.16;100.00
18167;BME280;9208;42.688;23.404;2022-12-26T01:54:04;96479.75;;;3.19;100.00
18167;BME280;9208;42.688;23.404;2022-12-26T01:56:34;96474.81;;;3.10;100.00
18167;BME280;9208;42.688;23.404;2022-12-26T01:59:05;96474.88;;;3.03;100.00
18167;BME280;9208;42.688;23.404;2022-12-26T02:01:37;96468.69;;;3.03;100.00
18167;BME280;9208;42.688;23.404;2022-12-26T02:04:07;96463.25;;;3.06;100.00
18167;BME280;9208;42.688;23.404;2022-12-26T02:06:52;96472.97;;;3.04;100.00
18167;BME280;9208;42.688;23.404;2022-12-26T02:09:18;96465.13;;;3.09;100.00
18167;BME280;9208;42.688;23.404;2022-12-26T02:11:49;96460.44;;;3.13;100.00
18167;BME280;9208;42.688;23.404;2022-12-26T02:14:19;96454.56;;;3.22;100.00
18167;BME280;9208;42.688;23.404;2022-12-26T02:16:45;96450.28;;;3.21;100.00
18167;BME280;9208;42.688;23.404;2022-12-26T02:36:13;96449.09;;;2.92;100.00
18167;BME280;9208;42.688;23.404;2022-12-26T02:44:21;96444.13;;;3.20;100.00
18167;BME280;9208;42.688;23.404;2022-12-26T02:47:14;96447.81;;;3.33;100.00
18167;BME280;9208;42.688;23.404;2022-12-26T02:49:52;96453.25;;;3.33;100.00
18167;BME280;9208;42.688;23.404;2022-12-26T02:55:45;96455.75;;;3.17;100.00
18167;BME280;9208;42.688;23.404;2022-12-26T02:58:56;96461.50;;;3.23;100.00
18167;BME280;9208;42.688;23.404;2022-12-26T03:01:45;96445.19;;;3.26;100.00
18167;BME280;9208;42.688;23.404;2022-12-26T03:04:31;96440.69;;;3.16;100.00
18167;BME280;9208;42.688;23.404;2022-12-26T03:07:21;96440.31;;;3.14;100.00
18167;BME280;9208;42.688;23.404;2022-12-26T03:10:15;96444.13;;;3.17;100.00
18167;BME280;9208;42.688;23.404;2022-12-26T03:13:05;96448.97;;;3.02;100.00
18167;BME280;9208;42.688;23.404;2022-12-26T03:16:00;96445.97;;;2.93;100.00
18167;BME280;9208;42.688;23.404;2022-12-26T03:18:49;96457.66;;;2.87;100.00
18167;BME280;9208;42.688;23.404;2022-12-26T03:21:19;96452.31;;;2.80;100.00
18167;BME280;9208;42.688;23.404;2022-12-26T03:23:48;96455.06;;;2.76;100.00
18167;BME280;9208;42.688;23.404;2022-12-26T03:26:26;96463.13;;;2.80;100.00
18167;BME280;9208;42.688;23.404;2022-12-26T03:29:13;96460.59;;;2.99;100.00
18167;BME280;9208;42.688;23.404;2022-12-26T03:32:01;96468.78;;;2.96;100.00
18167;BME280;9208;42.688;23.404;2022-12-26T03:34:27;96462.41;;;3.13;100.00
18167;BME280;9208;42.688;23.404;2022-12-26T03:39:48;96465.88;;;3.13;100.00
18167;BME280;9208;42.688;23.404;2022-12-26T03:43:02;96477.09;;;3.12;100.00
18167;BME280;9208;42.688;23.404;2022-12-26T03:46:15;96473.34;;;3.02;100.00
18167;BME280;9208;42.688;23.404;2022-12-26T03:49:08;96478.66;;;3.13;100.00
18167;BME280;9208;42.688;23.404;2022-12-26T03:52:22;96488.50;;;2.96;100.00
18167;BME280;9208;42.688;23.404;2022-12-26T03:58:15;96489.97;;;2.67;100.00
18167;BME280;9208;42.688;23.404;2022-12-26T04:01:05;96479.16;;;2.64;100.00
18167;BME280;9208;42.688;23.404;2022-12-26T04:03:52;96480.69;;;2.65;100.00
18167;BME280;9208;42.688;23.404;2022-12-26T04:06:49;96483.47;;;2.58;100.00
18167;BME280;9208;42.688;23.404;2022-12-26T04:09:45;96476.59;;;2.50;100.00
18167;BME280;9208;42.688;23.404;2022-12-26T04:12:48;96480.41;;;2.56;100.00
18167;BME280;9208;42.688;23.404;2022-12-26T04:15:46;96480.00;;;2.54;100.00
18167;BME280;9208;42.688;23.404;2022-12-26T04:18:38;96471.63;;;2.41;100.00
18167;BME280;9208;42.688;23.404;2022-12-26T04:21:39;96466.22;;;2.41;100.00
18167;BME280;9208;42.688;23.404;2022-12-26T04:24:30;96465.78;;;2.46;100.00
18167;BME280;9208;42.688;23.404;2022-12-26T04:27:17;96468.34;;;2.60;100.00
18167;BME280;9208;42.688;23.404;2022-12-26T04:30:03;96459.81;;;2.65;100.00
18167;BME280;9208;42.688;23.404;2022-12-26T04:32:48;96468.25;;;2.74;100.00
18167;BME280;9208;42.688;23.404;2022-12-26T04:35:44;96469.38;;;2.73;100.00
18167;BME280;9208;42.688;23.404;2022-12-26T04:38:36;96464.34;;;2.75;100.00
18167;BME280;9208;42.688;23.404;2022-12-26T04:41:25;96468.25;;;2.71;100.00
18167;BME280;9208;42.688;23.404;2022-12-26T04:44:11;96477.06;;;2.78;100.00
18167;BME280;9208;42.688;23.404;2022-12-26T04:46:42;96473.06;;;2.93;100.00
18167;BME280;9208;42.688;23.404;2022-12-26T04:49:12;96473.31;;;3.06;100.00
18167;BME280;9208;42.688;23.404;2022-12-26T04:51:58;96486.16;;;2.98;100.00
18167;BME280;9208;42.688;23.404;2022-12-26T04:54:24;96477.94;;;3.05;100.00
18167;BME280;9208;42.688;23.404;2022-12-26T04:56:49;96484.25;;;2.95;100.00
18167;BME280;9208;42.688;23.404;2022-12-26T04:59:15;96500.25;;;2.83;100.00
18167;BME280;9208;42.688;23.404;2022-12-26T05:01:41;96488.03;;;2.64;100.00
18167;BME280;9208;42.688;23.404;2022-12-26T05:04:25;96482.72;;;2.54;100.00
18167;BME280;9208;42.688;23.404;2022-12-26T05:07:19;96484.19;;;2.65;100.00
18167;BME280;9208;42.688;23.404;2022-12-26T05:10:05;96491.88;;;2.70;100.00
18167;BME280;9208;42.688;23.404;2022-12-26T05:12:31;96491.56;;;2.61;100.00
18167;BME280;9208;42.688;23.404;2022-12-26T05:14:56;96494.66;;;2.60;100.00
18167;BME280;9208;42.688;23.404;2022-12-26T05:17:22;96495.84;;;2.55;100.00
18167;BME280;9208;42.688;23.404;2022-12-26T05:20:06;96499.00;;;2.50;100.00
18167;BME280;9208;42.688;23.404;2022-12-26T05:22:51;96502.19;;;2.38;100.00
18167;BME280;9208;42.688;23.404;2022-12-26T05:25:39;96505.31;;;2.33;100.00
18167;BME280;9208;42.688;23.404;2022-12-26T05:28:24;96512.38;;;2.20;100.00
18167;BME280;9208;42.688;23.404;2022-12-26T05:31:13;96518.84;;;2.33;100.00
18167;BME280;9208;42.688;23.404;2022-12-26T05:33:39;96529.66;;;2.37;100.00
18167;BME280;9208;42.688;23.404;2022-12-26T05:36:25;96521.47;;;2.44;100.00
18167;BME280;9208;42.688;23.404;2022-12-26T05:38:51;96536.88;;;2.50;100.00
18167;BME280;9208;42.688;23.404;2022-12-26T05:41:17;96518.66;;;2.58;100.00
18167;BME280;9208;42.688;23.404;2022-12-26T05:43:43;96510.22;;;2.49;100.00
18167;BME280;9208;42.688;23.404;2022-12-26T05:46:08;96516.41;;;2.49;100.00
18167;BME280;9208;42.688;23.404;2022-12-26T05:48:34;96522.38;;;2.30;100.00
18167;BME280;9208;42.688;23.404;2022-12-26T05:51:00;96519.34;;;2.21;100.00
18167;BME280;9208;42.688;23.404;2022-12-26T05:53:27;96520.91;;;2.15;100.00
18167;BME280;9208;42.688;23.404;2022-12-26T05:55:52;96520.56;;;2.13;100.00
18167;BME280;9208;42.688;23.404;2022-12-26T05:58:18;96522.09;;;2.14;100.00
18167;BME280;9208;42.688;23.404;2022-12-26T06:00:43;96522.44;;;2.20;100.00
18167;BME280;9208;42.688;23.404;2022-12-26T06:03:09;96513.94;;;2.18;100.00
18167;BME280;9208;42.688;23.404;2022-12-26T06:05:34;96510.81;;;2.26;100.00
18167;BME280;9208;42.688;23.404;2022-12-26T06:08:00;96520.72;;;2.40;100.00
18167;BME280;9208;42.688;23.404;2022-12-26T06:10:25;96523.78;;;2.45;100.00
18167;BME280;9208;42.688;23.404;2022-12-26T06:12:53;96530.03;;;2.39;100.00
18167;BME280;9208;42.688;23.404;2022-12-26T06:15:19;96531.91;;;2.45;100.00
18167;BME280;9208;42.688;23.404;2022-12-26T06:17:44;96527.34;;;2.35;100.00
18167;BME280;9208;42.688;23.404;2022-12-26T06:20:10;96531.59;;;2.36;100.00
18167;BME280;9208;42.688;23.404;2022-12-26T06:22:35;96528.81;;;2.47;100.00
18167;BME280;9208;42.688;23.404;2022-12-26T06:25:01;96522.59;;;2.50;100.00
18167;BME280;9208;42.688;23.404;2022-12-26T06:27:26;96522.19;;;2.51;100.00
18167;BME280;9208;42.688;23.404;2022-12-26T06:29:52;96525.63;;;2.55;100.00
18167;BME280;9208;42.688;23.404;2022-12-26T06:32:17;96530.34;;;2.48;100.00
18167;BME280;9208;42.688;23.404;2022-12-26T06:34:43;96538.81;;;2.53;100.00
18167;BME280;9208;42.688;23.404;2022-12-26T06:37:08;96541.88;;;2.55;100.00
18167;BME280;9208;42.688;23.404;2022-12-26T06:39:33;96540.03;;;2.45;100.00
18167;BME280;9208;42.688;23.404;2022-12-26T06:41:59;96536.97;;;2.43;100.00
18167;BME280;9208;42.688;23.404;2022-12-26T06:44:25;96543.94;;;2.37;100.00
18167;BME280;9208;42.688;23.404;2022-12-26T06:46:50;96549.31;;;2.44;100.00
18167;BME280;9208;42.688;23.404;2022-12-26T06:49:16;96546.97;;;2.46;100.00
18167;BME280;9208;42.688;23.404;2022-12-26T06:51:41;96545.09;;;2.43;100.00
18167;BME280;9208;42.688;23.404;2022-12-26T06:54:09;96558.19;;;2.45;100.00
18167;BME280;9208;42.688;23.404;2022-12-26T06:56:35;96558.19;;;2.45;100.00
18167;BME280;9208;42.688;23.404;2022-12-26T06:59:03;96562.41;;;2.49;100.00
18167;BME280;9208;42.688;23.404;2022-12-26T07:01:32;96551.56;;;2.56;100.00
18167;BME280;9208;42.688;23.404;2022-12-26T07:03:59;96553.50;;;2.52;100.00
18167;BME280;9208;42.688;23.404;2022-12-26T07:06:28;96559.25;;;2.58;100.00
18167;BME280;9208;42.688;23.404;2022-12-26T07:08:56;96556.56;;;2.54;100.00
18167;BME280;9208;42.688;23.404;2022-12-26T07:11:24;96559.25;;;2.61;100.00
18167;BME280;9208;42.688;23.404;2022-12-26T07:13:50;96571.56;;;2.66;100.00
18167;BME280;9208;42.688;23.404;2022-12-26T07:16:16;96565.41;;;2.65;100.00
18167;BME280;9208;42.688;23.404;2022-12-26T07:18:41;96567.59;;;2.77;100.00
18167;BME280;9208;42.688;23.404;2022-12-26T07:21:14;96574.94;;;2.80;100.00
18167;BME280;9208;42.688;23.404;2022-12-26T07:23:40;96567.41;;;2.98;100.00
18167;BME280;9208;42.688;23.404;2022-12-26T07:26:06;96577.75;;;3.10;100.00
18167;BME280;9208;42.688;23.404;2022-12-26T07:28:32;96574.97;;;3.17;100.00
18167;BME280;9208;42.688;23.404;2022-12-26T07:30:58;96571.91;;;3.15;100.00
18167;BME280;9208;42.688;23.404;2022-12-26T07:33:25;96568.03;;;3.16;100.00
18167;BME280;9208;42.688;23.404;2022-12-26T07:35:51;96565.66;;;3.22;100.00
18167;BME280;9208;42.688;23.404;2022-12-26T07:38:16;96564.03;;;3.28;100.00
18167;BME280;9208;42.688;23.404;2022-12-26T07:40:42;96572.44;;;3.37;100.00
18167;BME280;9208;42.688;23.404;2022-12-26T07:43:07;96567.72;;;3.44;100.00
18167;BME280;9208;42.688;23.404;2022-12-26T07:45:33;96566.09;;;3.50;100.00
18167;BME280;9208;42.688;23.404;2022-12-26T07:47:58;96558.22;;;3.59;100.00
18167;BME280;9208;42.688;23.404;2022-12-26T07:50:25;96569.34;;;3.68;100.00
18167;BME280;9208;42.688;23.404;2022-12-26T07:52:51;96563.06;;;3.78;100.00
18167;BME280;9208;42.688;23.404;2022-12-26T07:55:17;96573.06;;;3.85;100.00
18167;BME280;9208;42.688;23.404;2022-12-26T07:57:43;96559.44;;;3.88;100.00
18167;BME280;9208;42.688;23.404;2022-12-26T08:00:09;96555.09;;;3.94;100.00
18167;BME280;9208;42.688;23.404;2022-12-26T08:02:34;96557.00;;;3.97;100.00
18167;BME280;9208;42.688;23.404;2022-12-26T08:05:00;96555.00;;;4.01;100.00
18167;BME280;9208;42.688;23.404;2022-12-26T08:07:25;96548.31;;;4.09;100.00
18167;BME280;9208;42.688;23.404;2022-12-26T08:09:51;96547.88;;;4.11;100.00
18167;BME280;9208;42.688;23.404;2022-12-26T08:12:16;96556.00;;;4.14;100.00
18167;BME280;9208;42.688;23.404;2022-12-26T08:14:46;96549.31;;;4.19;100.00
18167;BME280;9208;42.688;23.404;2022-12-26T08:17:12;96552.69;;;4.26;100.00
18167;BME280;9208;42.688;23.404;2022-12-26T08:19:37;96551.78;;;4.36;100.00
18167;BME280;9208;42.688;23.404;2022-12-26T08:22:03;96558.34;;;4.39;100.00
18167;BME280;9208;42.688;23.404;2022-12-26T08:24:29;96558.69;;;4.41;100.00
18167;BME280;9208;42.688;23.404;2022-12-26T08:26:54;96565.16;;;4.50;100.00
18167;BME280;9208;42.688;23.404;2022-12-26T08:29:19;96568.16;;;4.56;100.00
18167;BME280;9208;42.688;23.404;2022-12-26T08:31:45;96563.09;;;4.58;100.00
18167;BME280;9208;42.688;23.404;2022-12-26T08:34:10;96561.84;;;4.62;100.00
18167;BME280;9208;42.688;23.404;2022-12-26T08:36:38;96564.56;;;4.62;100.00
18167;BME280;9208;42.688;23.404;2022-12-26T08:39:04;96555.94;;;4.67;100.00
18167;BME280;9208;42.688;23.404;2022-12-26T08:41:29;96555.53;;;4.69;100.00
18167;BME280;9208;42.688;23.404;2022-12-26T08:43:55;96552.09;;;4.65;100.00
18167;BME280;9208;42.688;23.404;2022-12-26T08:46:21;96546.56;;;4.72;100.00
18167;BME280;9208;42.688;23.404;2022-12-26T08:48:47;96548.41;;;4.78;100.00
18167;BME280;9208;42.688;23.404;2022-12-26T08:51:18;96547.94;;;4.83;100.00
18167;BME280;9208;42.688;23.404;2022-12-26T08:53:44;96553.38;;;4.83;100.00
18167;BME280;9208;42.688;23.404;2022-12-26T08:56:13;96547.81;;;4.90;100.00
18167;BME280;9208;42.688;23.404;2022-12-26T08:58:39;96549.75;;;4.90;100.00
18167;BME280;9208;42.688;23.404;2022-12-26T09:01:25;96537.63;;;4.94;100.00
18167;BME280;9208;42.688;23.404;2022-12-26T09:03:59;96538.81;;;4.93;100.00
18167;BME280;9208;42.688;23.404;2022-12-26T09:06:26;96537.84;;;5.03;100.00
18167;BME280;9208;42.688;23.404;2022-12-26T09:08:52;96538.13;;;5.12;100.00
18167;BME280;9208;42.688;23.404;2022-12-26T09:11:22;96534.91;;;5.17;100.00
18167;BME280;9208;42.688;23.404;2022-12-26T09:13:51;96532.91;;;5.21;100.00
18167;BME280;9208;42.688;23.404;2022-12-26T09:16:20;96530.81;;;5.29;100.00
18167;BME280;9208;42.688;23.404;2022-12-26T09:18:47;96533.38;;;5.36;100.00
18167;BME280;9208;42.688;23.404;2022-12-26T09:21:13;96536.06;;;5.39;100.00
18167;BME280;9208;42.688;23.404;2022-12-26T09:23:40;96531.28;;;5.43;100.00
18167;BME280;9208;42.688;23.404;2022-12-26T09:26:17;96520.00;;;5.45;100.00
18167;BME280;9208;42.688;23.404;2022-12-26T09:28:44;96519.50;;;5.50;100.00
18167;BME280;9208;42.688;23.404;2022-12-26T09:31:16;96515.38;;;5.61;100.00
18167;BME280;9208;42.688;23.404;2022-12-26T09:33:43;96512.19;;;5.66;100.00
18167;BME280;9208;42.688;23.404;2022-12-26T09:36:11;96510.44;;;5.76;100.00
18167;BME280;9208;42.688;23.404;2022-12-26T09:38:41;96508.78;;;5.82;100.00
18167;BME280;9208;42.688;23.404;2022-12-26T09:44:13;96513.50;;;5.97;100.00
18167;BME280;9208;42.688;23.404;2022-12-26T09:49:33;96505.78;;;5.96;100.00
18167;BME280;9208;42.688;23.404;2022-12-26T09:52:10;96505.50;;;6.06;100.00
18167;BME280;9208;42.688;23.404;2022-12-26T09:54:40;96500.69;;;6.14;100.00
18167;BME280;9208;42.688;23.404;2022-12-26T09:57:14;96493.38;;;6.11;100.00
18167;BME280;9208;42.688;23.404;2022-12-26T09:59:54;96499.16;;;6.13;100.00
18167;BME280;9208;42.688;23.404;2022-12-26T10:02:23;96485.47;;;6.16;100.00
18167;BME280;9208;42.688;23.404;2022-12-26T10:04:50;96498.34;;;6.32;100.00
18167;BME280;9208;42.688;23.404;2022-12-26T10:07:19;96486.94;;;6.37;100.00
18167;BME280;9208;42.688;23.404;2022-12-26T10:17:46;96470.38;;;6.76;100.00
18167;BME280;9208;42.688;23.404;2022-12-26T10:23:17;96468.75;;;6.94;100.00
18167;BME280;9208;42.688;23.404;2022-12-26T10:25:51;96471.09;;;7.08;100.00
18167;BME280;9208;42.688;23.404;2022-12-26T10:28:24;96456.50;;;7.15;100.00
18167;BME280;9208;42.688;23.404;2022-12-26T10:30:54;96454.03;;;7.20;100.00
18167;BME280;9208;42.688;23.404;2022-12-26T10:33:33;96454.69;;;7.24;100.00
18167;BME280;9208;42.688;23.404;2022-12-26T10:36:01;96458.00;;;7.32;100.00
18167;BME280;9208;42.688;23.404;2022-12-26T10:38:38;96454.31;;;7.38;100.00
18167;BME280;9208;42.688;23.404;2022-12-26T10:41:12;96454.44;;;7.47;100.00
18167;BME280;9208;42.688;23.404;2022-12-26T10:43:39;96449.00;;;7.60;100.00
18167;BME280;9208;42.688;23.404;2022-12-26T10:49:10;96440.38;;;7.74;100.00
18167;BME280;9208;42.688;23.404;2022-12-26T10:51:37;96446.75;;;7.83;100.00
18167;BME280;9208;42.688;23.404;2022-12-26T10:54:16;96448.94;;;7.88;100.00
18167;BME280;9208;42.688;23.404;2022-12-26T10:56:46;96444.00;;;7.96;100.00
18167;BME280;9208;42.688;23.404;2022-12-26T10:59:22;96443.81;;;8.03;100.00
18167;BME280;9208;42.688;23.404;2022-12-26T11:01:50;96435.28;;;8.01;100.00
18167;BME280;9208;42.688;23.404;2022-12-26T11:04:25;96420.97;;;7.97;100.00
18167;BME280;9208;42.688;23.404;2022-12-26T11:06:52;96434.28;;;8.07;100.00
18167;BME280;9208;42.688;23.404;2022-12-26T11:09:41;96432.44;;;8.17;100.00
18167;BME280;9208;42.688;23.404;2022-12-26T11:12:41;96416.75;;;8.21;100.00
18167;BME280;9208;42.688;23.404;2022-12-26T11:15:18;96413.88;;;8.24;100.00
18167;BME280;9208;42.688;23.404;2022-12-26T11:17:47;96407.00;;;8.32;100.00
18167;BME280;9208;42.688;23.404;2022-12-26T11:22:44;96405.41;;;8.56;100.00
18167;BME280;9208;42.688;23.404;2022-12-26T11:25:25;96394.25;;;8.63;100.00
18167;BME280;9208;42.688;23.404;2022-12-26T11:27:57;96399.47;;;8.70;100.00
18167;BME280;9208;42.688;23.404;2022-12-26T11:30:26;96397.81;;;8.73;100.00
18167;BME280;9208;42.688;23.404;2022-12-26T11:33:11;96396.59;;;8.74;100.00
18167;BME280;9208;42.688;23.404;2022-12-26T11:36:30;96400.31;;;8.80;100.00
18167;BME280;9208;42.688;23.404;2022-12-26T11:38:32;96396.50;;;8.77;100.00
18167;BME280;9208;42.688;23.404;2022-12-26T11:41:11;96400.53;;;8.73;100.00
18167;BME280;9208;42.688;23.404;2022-12-26T11:49:36;96387.28;;;8.84;100.00
18167;BME280;9208;42.688;23.404;2022-12-26T11:52:02;96388.81;;;8.85;100.00
18167;BME280;9208;42.688;23.404;2022-12-26T11:54:48;96386.28;;;8.90;100.00
18167;BME280;9208;42.688;23.404;2022-12-26T11:57:20;96380.69;;;8.94;100.00
18167;BME280;9208;42.688;23.404;2022-12-26T11:59:47;96375.84;;;8.98;100.00
18167;BME280;9208;42.688;23.404;2022-12-26T12:02:23;96368.72;;;9.00;100.00
18167;BME280;9208;42.688;23.404;2022-12-26T12:04:52;96362.81;;;9.02;100.00
18167;BME280;9208;42.688;23.404;2022-12-26T12:13:24;96355.63;;;9.17;100.00
18167;BME280;9208;42.688;23.404;2022-12-26T12:16:09;96362.50;;;9.21;100.00
18167;BME280;9208;42.688;23.404;2022-12-26T12:21:28;96351.09;;;9.23;100.00
18167;BME280;9208;42.688;23.404;2022-12-26T12:26:45;96351.41;;;9.25;100.00
18167;BME280;9208;42.688;23.404;2022-12-26T12:32:00;96354.88;;;9.47;100.00
18167;BME280;9208;42.688;23.404;2022-12-26T12:34:52;96340.47;;;9.55;100.00
18167;BME280;9208;42.688;23.404;2022-12-26T12:48:58;96348.31;;;10.05;100.00
18167;BME280;9208;42.688;23.404;2022-12-26T12:51:48;96344.97;;;10.10;100.00
18167;BME280;9208;42.688;23.404;2022-12-26T12:57:18;96348.19;;;10.18;100.00
18167;BME280;9208;42.688;23.404;2022-12-26T13:00:17;96348.06;;;10.22;100.00
18167;BME280;9208;42.688;23.404;2022-12-26T13:08:03;96344.25;;;10.19;100.00
18167;BME280;9208;42.688;23.404;2022-12-26T13:10:31;96340.13;;;10.23;100.00
18167;BME280;9208;42.688;23.404;2022-12-26T13:13:08;96350.03;;;10.30;100.00
18167;BME280;9208;42.688;23.404;2022-12-26T13:15:42;96333.31;;;10.37;100.00
18167;BME280;9208;42.688;23.404;2022-12-26T13:18:26;96330.25;;;10.53;100.00
18167;BME280;9208;42.688;23.404;2022-12-26T13:20:58;96342.63;;;10.58;100.00
18167;BME280;9208;42.688;23.404;2022-12-26T13:23:52;96352.53;;;10.73;100.00
18167;BME280;9208;42.688;23.404;2022-12-26T13:26:45;96356.97;;;10.80;100.00
18167;BME280;9208;42.688;23.404;2022-12-26T13:32:02;96354.84;;;10.84;100.00
18167;BME280;9208;42.688;23.404;2022-12-26T13:34:29;96335.16;;;10.85;100.00
18167;BME280;9208;42.688;23.404;2022-12-26T13:36:57;96339.88;;;10.94;100.00
18167;BME280;9208;42.688;23.404;2022-12-26T13:41:54;96340.94;;;10.96;100.00
18167;BME280;9208;42.688;23.404;2022-12-26T13:44:41;96345.97;;;10.98;100.00
18167;BME280;9208;42.688;23.404;2022-12-26T13:47:30;96338.19;;;10.96;100.00
18167;BME280;9208;42.688;23.404;2022-12-26T13:49:55;96347.34;;;10.93;100.00
18167;BME280;9208;42.688;23.404;2022-12-26T13:52:32;96344.16;;;10.95;100.00
18167;BME280;9208;42.688;23.404;2022-12-26T13:57:40;96348.28;;;10.90;100.00
18167;BME280;9208;42.688;23.404;2022-12-26T14:00:39;96343.25;;;10.89;100.00
18167;BME280;9208;42.688;23.404;2022-12-26T14:19:49;96337.44;;;10.69;100.00
18167;BME280;9208;42.688;23.404;2022-12-26T14:27:57;96332.56;;;10.64;100.00
18167;BME280;9208;42.688;23.404;2022-12-26T14:30:33;96337.75;;;10.62;100.00
18167;BME280;9208;42.688;23.404;2022-12-26T14:36:20;96332.25;;;10.53;100.00
18167;BME280;9208;42.688;23.404;2022-12-26T14:39:29;96332.88;;;10.48;100.00
18167;BME280;9208;42.688;23.404;2022-12-26T14:55:55;96344.06;;;10.13;100.00
18167;BME280;9208;42.688;23.404;2022-12-26T15:15:28;96332.88;;;9.59;100.00
18167;BME280;9208;42.688;23.404;2022-12-26T15:28:40;96309.09;;;9.47;100.00
18167;BME280;9208;42.688;23.404;2022-12-26T15:34:31;96308.75;;;9.36;100.00
18167;BME280;9208;42.688;23.404;2022-12-26T15:53:33;96327.25;;;8.80;100.00
18167;BME280;9208;42.688;23.404;2022-12-26T15:56:33;96327.38;;;8.77;100.00
18167;BME280;9208;42.688;23.404;2022-12-26T16:01:57;96316.94;;;8.63;100.00
18167;BME280;9208;42.688;23.404;2022-12-26T16:04:31;96316.94;;;8.63;100.00
18167;BME280;9208;42.688;23.404;2022-12-26T16:09:54;96332.50;;;8.53;100.00
18167;BME280;9208;42.688;23.404;2022-12-26T16:12:22;96342.69;;;8.53;100.00
18167;BME280;9208;42.688;23.404;2022-12-26T16:14:49;96342.69;;;8.53;100.00
18167;BME280;9208;42.688;23.404;2022-12-26T16:17:16;96346.06;;;8.44;100.00
18167;BME280;9208;42.688;23.404;2022-12-26T16:19:44;96335.84;;;8.36;100.00
18167;BME280;9208;42.688;23.404;2022-12-26T16:22:15;96335.63;;;8.30;100.00
18167;BME280;9208;42.688;23.404;2022-12-26T16:25:00;96342.22;;;8.20;100.00
18167;BME280;9208;42.688;23.404;2022-12-26T16:27:26;96334.69;;;8.12;100.00
18167;BME280;9208;42.688;23.404;2022-12-26T16:29:55;96342.56;;;7.97;100.00
18167;BME280;9208;42.688;23.404;2022-12-26T16:32:27;96340.94;;;7.87;100.00
18167;BME280;9208;42.688;23.404;2022-12-26T16:34:54;96350.97;;;7.78;100.00
18167;BME280;9208;42.688;23.404;2022-12-26T16:37:22;96346.19;;;7.69;100.00
18167;BME280;9208;42.688;23.404;2022-12-26T16:42:41;96333.09;;;7.64;100.00
18167;BME280;9208;42.688;23.404;2022-12-26T16:45:17;96340.50;;;7.51;100.00
18167;BME280;9208;42.688;23.404;2022-12-26T16:47:43;96343.44;;;7.44;100.00